Oakland, Nebraska
Current Conditions -  °F | °C
As of 1:54 AM on Wednesday 26 Nov 2014 (Local Time) from KTQE Reporting Station
Overcast Overcast  
Wind Chill: 35°   Ceiling: 1500
Heat Index: 35°   Visibility: 10mi
Dew Point: 31°   Wind: 0mph
Humidity: 85%   Direction: NA
Pressure: 29.82"   Gusts: NA
Location:  41.84°N, 96.47°W
Report Text: KTQE 260754Z AUTO 00000KT 10SM OVC015 02/M01 A2982 RMK AO2 RAB30E48 SLP099 P0000 T00171006
Loading
Personal Weather Stations






























Interactive Weather Map New forecast layout! Learn more

10-Day Weather Forecast

Advertisements
Track Severe Weather on mobile